createdAt,value
2022-09-03T00:00:40.389Z,50.908119
2022-09-03T00:01:40.433Z,50.908115
2022-09-03T00:02:40.409Z,50.908108
2022-09-03T00:03:40.367Z,50.908131
2022-09-03T00:04:40.382Z,50.908157
2022-09-03T00:05:40.350Z,50.908142
2022-09-03T00:06:40.340Z,50.908134
2022-09-03T00:07:40.329Z,50.908104
2022-09-03T00:08:40.793Z,50.908031
2022-09-03T00:09:40.340Z,50.908039
2022-09-03T00:10:40.310Z,50.908062
2022-09-03T00:11:40.301Z,50.908134
2022-09-03T00:12:40.295Z,50.908104
2022-09-03T00:13:40.286Z,50.908112
2022-09-03T00:14:40.305Z,50.908123
2022-09-03T00:15:40.305Z,50.908108
2022-09-03T00:16:40.266Z,50.908123
2022-09-03T00:17:40.250Z,50.908142
2022-09-03T00:18:40.240Z,50.908134
2022-09-03T00:19:41.259Z,50.908092
2022-09-03T00:20:40.237Z,50.908104
2022-09-03T00:21:40.229Z,50.908115
2022-09-03T00:22:40.217Z,50.908123
2022-09-03T00:23:40.209Z,50.908131
2022-09-03T00:24:40.219Z,50.908127
2022-09-03T00:25:40.193Z,50.908108
2022-09-03T00:26:40.180Z,50.908142
2022-09-03T00:27:40.173Z,50.908123
2022-09-03T00:28:40.167Z,50.908123
2022-09-03T00:29:40.186Z,50.908112
2022-09-03T00:30:40.147Z,50.908112
2022-09-03T00:31:40.182Z,50.908081
2022-09-03T00:32:40.130Z,50.908051
2022-09-03T00:33:40.126Z,50.908131
2022-09-03T00:34:40.140Z,50.908134
2022-09-03T00:35:40.107Z,50.908134
2022-09-03T00:36:40.103Z,50.908131
2022-09-03T00:37:40.093Z,50.908119
2022-09-03T00:38:40.085Z,50.908138
2022-09-03T00:39:40.160Z,50.908146
2022-09-03T00:40:40.073Z,50.908134
2022-09-03T00:41:40.065Z,50.908127
2022-09-03T00:42:40.055Z,50.908138
2022-09-03T00:43:40.046Z,50.908157
2022-09-03T00:44:40.062Z,50.908127
2022-09-03T00:45:40.027Z,50.908119
2022-09-03T00:46:40.083Z,50.908123
2022-09-03T00:47:40.011Z,50.908150
2022-09-03T00:48:41.010Z,50.908173
2022-09-03T00:49:40.024Z,50.908150
2022-09-03T00:50:39.990Z,50.908154
2022-09-03T00:51:39.987Z,50.908154
2022-09-03T00:52:39.978Z,50.908184
2022-09-03T00:53:39.964Z,50.908184
2022-09-03T00:54:39.988Z,50.908169
2022-09-03T00:55:39.951Z,50.908131
2022-09-03T00:56:39.943Z,50.908169
2022-09-03T00:57:39.944Z,50.908207
2022-09-03T00:58:39.928Z,50.908165
2022-09-03T00:59:39.944Z,50.908108
2022-09-03T01:00:39.904Z,50.908154
2022-09-03T01:01:39.990Z,50.908215
2022-09-03T01:02:40.030Z,50.908245
2022-09-03T01:03:39.886Z,50.908157
2022-09-03T01:04:39.908Z,50.908184
2022-09-03T01:05:39.869Z,50.908176
2022-09-03T01:06:39.862Z,50.908218
2022-09-03T01:07:39.853Z,50.908154
2022-09-03T01:08:39.845Z,50.908127
2022-09-03T01:09:39.860Z,50.908154
2022-09-03T01:10:39.865Z,50.908142
2022-09-03T01:11:39.825Z,50.908184
2022-09-03T01:12:39.816Z,50.908150
2022-09-03T01:13:39.804Z,50.908112
2022-09-03T01:14:39.832Z,50.908096
2022-09-03T01:15:39.824Z,50.908058
2022-09-03T01:16:39.785Z,50.908131
2022-09-03T01:17:39.770Z,50.908123
2022-09-03T01:18:39.769Z,50.908321
2022-09-03T01:19:39.785Z,50.908314
2022-09-03T01:20:39.753Z,50.908199
2022-09-03T01:21:39.747Z,50.908150
2022-09-03T01:22:40.763Z,50.908218
2022-09-03T01:23:39.729Z,50.908085
2022-09-03T01:24:39.724Z,50.908070
2022-09-03T01:25:39.741Z,50.908089
2022-09-03T01:26:39.707Z,50.908138
2022-09-03T01:27:39.702Z,50.908127
2022-09-03T01:28:39.691Z,50.908089
2022-09-03T01:29:39.830Z,50.908062
2022-09-03T01:30:39.740Z,50.908085
2022-09-03T01:31:39.668Z,50.908112
2022-09-03T01:32:39.660Z,50.908081
2022-09-03T01:33:39.652Z,50.908005
2022-09-03T01:34:39.642Z,50.907990
2022-09-03T01:35:39.658Z,50.908051
2022-09-03T01:36:39.627Z,50.908070
2022-09-03T01:37:39.622Z,50.908073
2022-09-03T01:38:39.611Z,50.908070
2022-09-03T01:39:39.653Z,50.908047
2022-09-03T01:40:39.626Z,50.908047
2022-09-03T01:41:39.593Z,50.908104
2022-09-03T01:42:39.592Z,50.908119
2022-09-03T01:43:44.709Z,50.908043
2022-09-03T01:44:41.565Z,50.908089
2022-09-03T01:45:39.587Z,50.908070
2022-09-03T01:46:39.658Z,50.908161
2022-09-03T01:47:39.550Z,50.908134
2022-09-03T01:48:39.538Z,50.908104
2022-09-03T01:49:39.540Z,50.908073
2022-09-03T01:50:39.551Z,50.908112
2022-09-03T01:51:39.540Z,50.908150
2022-09-03T01:52:39.518Z,50.908192
2022-09-03T01:53:39.501Z,50.908134
2022-09-03T01:54:39.506Z,50.908165
2022-09-03T01:55:39.561Z,50.908173
2022-09-03T01:56:39.475Z,50.908207
2022-09-03T01:57:39.468Z,50.908119
2022-09-03T01:58:39.461Z,50.908131
2022-09-03T01:59:39.456Z,50.908154
2022-09-03T02:00:39.468Z,50.908203
2022-09-03T02:01:39.477Z,50.908173
2022-09-03T02:02:39.450Z,50.908154
2022-09-03T02:03:41.133Z,50.908203
2022-09-03T02:04:39.415Z,50.908226
2022-09-03T02:05:39.433Z,50.908169
2022-09-03T02:06:39.402Z,50.908142
2022-09-03T02:07:39.382Z,50.908173
2022-09-03T02:08:40.385Z,50.908234
2022-09-03T02:09:39.378Z,50.908165
2022-09-03T02:10:39.399Z,50.908131
2022-09-03T02:11:39.359Z,50.908173
2022-09-03T02:12:39.356Z,50.908222
2022-09-03T02:13:39.348Z,50.908237
2022-09-03T02:14:39.337Z,50.908188
2022-09-03T02:15:39.423Z,50.908146
2022-09-03T02:16:39.319Z,50.908165
2022-09-03T02:17:39.316Z,50.908180
2022-09-03T02:18:39.306Z,50.908165
2022-09-03T02:19:39.306Z,50.908161
2022-09-03T02:20:39.291Z,50.908165
2022-09-03T02:21:39.307Z,50.908150
2022-09-03T02:22:39.275Z,50.908154
2022-09-03T02:23:39.263Z,50.908161
2022-09-03T02:24:39.259Z,50.908146
2022-09-03T02:25:39.286Z,50.908134
2022-09-03T02:26:39.251Z,50.908134
2022-09-03T02:27:39.225Z,50.908138
2022-09-03T02:28:40.230Z,50.908100
2022-09-03T02:29:39.226Z,50.908161
2022-09-03T02:30:39.253Z,50.908154
2022-09-03T02:31:39.229Z,50.908176
2022-09-03T02:32:39.198Z,50.908134
2022-09-03T02:33:39.189Z,50.908150
2022-09-03T02:34:39.182Z,50.908199
2022-09-03T02:35:39.172Z,50.908134
2022-09-03T02:36:39.200Z,50.908176
2022-09-03T02:37:39.159Z,50.908146
2022-09-03T02:38:39.154Z,50.908131
2022-09-03T02:39:39.503Z,50.908100
2022-09-03T02:40:40.140Z,50.908062
2022-09-03T02:41:39.151Z,50.908146
2022-09-03T02:42:39.125Z,50.908169
2022-09-03T02:43:39.118Z,50.908115
2022-09-03T02:44:39.106Z,50.908073
2022-09-03T02:45:39.173Z,50.908035
2022-09-03T02:46:39.132Z,50.908112
2022-09-03T02:47:39.086Z,50.908176
2022-09-03T02:48:39.074Z,50.908112
2022-09-03T02:49:39.066Z,50.908142
2022-09-03T02:50:39.060Z,50.908043
2022-09-03T02:51:39.087Z,50.908115
2022-09-03T02:52:39.043Z,50.908131
2022-09-03T02:53:39.034Z,50.908146
2022-09-03T02:54:39.033Z,50.908192
2022-09-03T02:55:39.027Z,50.908138
2022-09-03T02:56:39.038Z,50.908165
2022-09-03T02:57:39.006Z,50.908154
2022-09-03T02:58:38.998Z,50.908142
2022-09-03T02:59:38.987Z,50.908092
2022-09-03T03:00:38.987Z,50.908115
2022-09-03T03:01:39.062Z,50.908115
2022-09-03T03:02:39.012Z,50.908119
2022-09-03T03:03:38.975Z,50.908131
2022-09-03T03:04:38.952Z,50.908112
2022-09-03T03:05:38.942Z,50.908138
2022-09-03T03:06:39.015Z,50.908142
2022-09-03T03:07:38.932Z,50.908138
2022-09-03T03:08:38.917Z,50.908138
2022-09-03T03:09:38.915Z,50.908142
2022-09-03T03:10:38.904Z,50.908138
2022-09-03T03:11:38.921Z,50.908134
2022-09-03T03:12:38.890Z,50.908108
2022-09-03T03:13:38.880Z,50.908127
2022-09-03T03:14:39.879Z,50.908134
2022-09-03T03:15:38.867Z,50.908127
2022-09-03T03:16:38.946Z,50.908138
2022-09-03T03:17:38.847Z,50.908138
2022-09-03T03:18:38.842Z,50.908115
2022-09-03T03:19:38.837Z,50.908142
2022-09-03T03:20:38.828Z,50.908146
2022-09-03T03:21:38.844Z,50.908161
2022-09-03T03:22:38.801Z,50.908165
2022-09-03T03:23:39.803Z,50.908173
2022-09-03T03:24:38.799Z,50.908146
2022-09-03T03:25:38.789Z,50.908150
2022-09-03T03:26:38.808Z,50.908165
2022-09-03T03:27:38.776Z,50.908150
2022-09-03T03:28:38.764Z,50.908119
2022-09-03T03:29:38.760Z,50.908154
2022-09-03T03:30:38.775Z,50.908180
2022-09-03T03:31:38.915Z,50.908188
2022-09-03T03:32:38.737Z,50.908154
2022-09-03T03:33:38.730Z,50.908058
2022-09-03T03:34:38.724Z,50.908146
2022-09-03T03:35:38.720Z,50.908115
2022-09-03T03:36:38.739Z,50.908127
2022-09-03T03:37:38.693Z,50.908092
2022-09-03T03:38:38.685Z,50.908104
2022-09-03T03:39:38.728Z,50.908131
2022-09-03T03:40:38.682Z,50.908119
2022-09-03T03:41:38.684Z,50.908146
2022-09-03T03:42:38.666Z,50.908169
2022-09-03T03:43:38.654Z,50.908142
2022-09-03T03:44:38.647Z,50.908176
2022-09-03T03:45:38.680Z,50.908188
2022-09-03T03:46:38.657Z,50.908131
2022-09-03T03:47:38.621Z,50.908161
2022-09-03T03:48:38.615Z,50.908127
2022-09-03T03:49:38.601Z,50.908123
2022-09-03T03:50:38.599Z,50.908226
2022-09-03T03:51:38.628Z,50.908203
2022-09-03T03:52:38.588Z,50.908092
2022-09-03T03:53:38.574Z,50.908173
2022-09-03T03:54:38.574Z,50.908092
2022-09-03T03:55:38.567Z,50.908108
2022-09-03T03:56:38.582Z,50.908146
2022-09-03T03:57:38.545Z,50.908154
2022-09-03T03:58:38.537Z,50.908180
2022-09-03T03:59:38.524Z,50.908318
2022-09-03T04:00:38.525Z,50.908188
2022-09-03T04:01:38.586Z,50.908176
2022-09-03T04:02:39.272Z,50.908092
2022-09-03T04:03:39.500Z,50.908146
2022-09-03T04:04:38.497Z,50.908142
2022-09-03T04:05:43.298Z,50.908180
2022-09-03T04:06:40.508Z,50.908138
2022-09-03T04:07:38.470Z,50.908115
2022-09-03T04:08:38.464Z,50.908081
2022-09-03T04:09:38.459Z,50.908096
2022-09-03T04:10:38.450Z,50.908234
2022-09-03T04:11:38.467Z,50.908154
2022-09-03T04:12:38.439Z,50.908138
2022-09-03T04:13:38.422Z,50.908134
2022-09-03T04:14:38.432Z,50.908237
2022-09-03T04:15:38.414Z,50.908115
2022-09-03T04:16:38.445Z,50.908207
2022-09-03T04:17:38.393Z,50.908154
2022-09-03T04:18:38.386Z,50.908192
2022-09-03T04:19:38.384Z,50.908115
2022-09-03T04:20:38.370Z,50.908112
2022-09-03T04:21:38.394Z,50.908123
2022-09-03T04:22:38.363Z,50.908150
2022-09-03T04:23:38.352Z,50.908165
2022-09-03T04:24:38.348Z,50.908150
2022-09-03T04:25:38.332Z,50.908157
2022-09-03T04:26:38.355Z,50.908188
2022-09-03T04:27:38.323Z,50.908157
2022-09-03T04:28:38.310Z,50.908150
2022-09-03T04:29:38.311Z,50.908131
2022-09-03T04:30:38.334Z,50.908115
2022-09-03T04:31:38.310Z,50.908134
2022-09-03T04:32:38.280Z,50.908154
2022-09-03T04:33:38.274Z,50.908100
2022-09-03T04:34:38.262Z,50.908123
2022-09-03T04:35:38.254Z,50.908161
2022-09-03T04:36:38.278Z,50.908211
2022-09-03T04:37:38.245Z,50.908142
2022-09-03T04:38:38.236Z,50.908173
2022-09-03T04:39:38.292Z,50.908142
2022-09-03T04:40:38.214Z,50.908134
2022-09-03T04:41:38.235Z,50.908104
2022-09-03T04:42:38.202Z,50.908115
2022-09-03T04:43:38.191Z,50.907993
2022-09-03T04:44:38.188Z,50.908112
2022-09-03T04:45:38.212Z,50.908085
2022-09-03T04:46:38.201Z,50.908207
2022-09-03T04:47:38.156Z,50.908161
2022-09-03T04:48:38.159Z,50.908119
2022-09-03T04:49:38.143Z,50.908138
2022-09-03T04:50:38.138Z,50.908131
2022-09-03T04:51:38.110Z,50.908077
2022-09-03T04:52:39.146Z,50.908054
2022-09-03T04:53:38.117Z,50.908066
2022-09-03T04:54:38.099Z,50.908062
2022-09-03T04:55:38.099Z,50.908085
2022-09-03T04:56:38.090Z,50.908085
2022-09-03T04:57:38.109Z,50.908054
2022-09-03T04:58:38.061Z,50.908058
2022-09-03T04:59:39.061Z,50.908131
2022-09-03T05:00:38.057Z,50.908176
2022-09-03T05:01:38.164Z,50.908142
2022-09-03T05:02:38.140Z,50.908073
2022-09-03T05:03:38.036Z,50.908085
2022-09-03T05:04:38.033Z,50.908154
2022-09-03T05:05:38.022Z,50.908131
2022-09-03T05:06:38.017Z,50.908047
2022-09-03T05:07:38.030Z,50.908119
2022-09-03T05:08:37.990Z,50.908131
2022-09-03T05:09:37.989Z,50.908104
2022-09-03T05:10:37.976Z,50.908028
2022-09-03T05:11:37.966Z,50.908073
2022-09-03T05:12:37.994Z,50.908100
2022-09-03T05:13:37.952Z,50.908104
2022-09-03T05:14:37.946Z,50.908005
2022-09-03T05:15:37.942Z,50.908066
2022-09-03T05:16:38.004Z,50.908108
2022-09-03T05:17:37.941Z,50.908138
2022-09-03T05:18:37.906Z,50.908039
2022-09-03T05:19:38.912Z,50.908031
2022-09-03T05:20:37.889Z,50.908131
2022-09-03T05:21:38.917Z,50.908123
2022-09-03T05:22:37.882Z,50.908119
2022-09-03T05:23:37.932Z,50.908115
2022-09-03T05:24:37.871Z,50.908108
2022-09-03T05:25:37.869Z,50.907982
2022-09-03T05:26:37.878Z,50.907955
2022-09-03T05:27:37.845Z,50.908081
2022-09-03T05:28:37.839Z,50.908073
2022-09-03T05:29:37.836Z,50.908070
2022-09-03T05:30:37.820Z,50.908119
2022-09-03T05:31:37.873Z,50.907990
2022-09-03T05:32:37.802Z,50.907799
2022-09-03T05:33:38.794Z,50.907944
2022-09-03T05:34:37.790Z,50.908031
2022-09-03T05:35:37.781Z,50.908115
2022-09-03T05:36:37.801Z,50.908165
2022-09-03T05:37:37.766Z,50.908112
2022-09-03T05:38:37.771Z,50.908123
2022-09-03T05:39:37.843Z,50.908127
2022-09-03T05:40:37.744Z,50.908146
2022-09-03T05:41:37.730Z,50.908092
2022-09-03T05:42:37.762Z,50.908127
2022-09-03T05:43:37.733Z,50.908081
2022-09-03T05:44:37.710Z,50.908123
2022-09-03T05:45:37.759Z,50.908096
2022-09-03T05:46:37.693Z,50.908112
2022-09-03T05:47:37.714Z,50.908035
2022-09-03T05:48:37.687Z,50.908058
2022-09-03T05:49:37.680Z,50.908108
2022-09-03T05:50:37.669Z,50.908005
2022-09-03T05:51:37.661Z,50.908035
2022-09-03T05:52:37.677Z,50.908157
2022-09-03T05:53:37.643Z,50.908199
2022-09-03T05:54:37.634Z,50.908234
2022-09-03T05:55:37.627Z,50.908157
2022-09-03T05:56:37.622Z,50.908150
2022-09-03T05:57:37.631Z,50.908089
2022-09-03T05:58:37.606Z,50.907883
2022-09-03T05:59:37.599Z,50.908047
2022-09-03T06:00:37.594Z,50.908077
2022-09-03T06:01:37.627Z,50.907890
2022-09-03T06:02:37.674Z,50.907898
2022-09-03T06:03:37.648Z,50.907940
2022-09-03T06:04:37.564Z,50.908081
2022-09-03T06:05:37.556Z,50.908138
2022-09-03T06:06:37.545Z,50.908188
2022-09-03T06:07:37.564Z,50.908154
2022-09-03T06:08:37.534Z,50.908165
2022-09-03T06:09:37.527Z,50.908112
2022-09-03T06:10:40.965Z,50.908039
2022-09-03T06:11:38.640Z,50.908077
2022-09-03T06:12:37.533Z,50.908142
2022-09-03T06:13:37.508Z,50.908192
2022-09-03T06:14:37.492Z,50.908165
2022-09-03T06:15:37.478Z,50.908127
2022-09-03T06:16:37.535Z,50.908062
2022-09-03T06:17:37.484Z,50.908115
2022-09-03T06:18:37.548Z,50.908146
2022-09-03T06:19:37.451Z,50.908073
2022-09-03T06:20:37.524Z,50.908066
2022-09-03T06:21:37.432Z,50.908092
2022-09-03T06:22:37.449Z,50.908112
2022-09-03T06:23:37.419Z,50.908150
2022-09-03T06:24:37.412Z,50.908089
2022-09-03T06:25:37.404Z,50.908157
2022-09-03T06:26:37.394Z,50.908150
2022-09-03T06:27:37.411Z,50.908100
2022-09-03T06:28:37.376Z,50.908134
2022-09-03T06:29:37.367Z,50.908096
2022-09-03T06:30:37.373Z,50.908131
2022-09-03T06:31:37.416Z,50.908157
2022-09-03T06:32:37.384Z,50.908142
2022-09-03T06:33:37.343Z,50.908070
2022-09-03T06:34:37.338Z,50.908092
2022-09-03T06:35:42.795Z,50.908096
2022-09-03T06:36:38.322Z,50.908005
2022-09-03T06:37:37.340Z,50.908031
2022-09-03T06:38:37.307Z,50.908066
2022-09-03T06:39:37.363Z,50.908005
2022-09-03T06:40:37.298Z,50.908028
2022-09-03T06:41:37.300Z,50.908070
2022-09-03T06:42:37.288Z,50.908138
2022-09-03T06:43:37.297Z,50.908157
2022-09-03T06:44:37.268Z,50.908184
2022-09-03T06:45:37.297Z,50.908146
2022-09-03T06:46:37.271Z,50.908169
2022-09-03T06:47:37.251Z,50.907974
2022-09-03T06:48:37.273Z,50.908024
2022-09-03T06:49:37.232Z,50.908142
2022-09-03T06:50:37.234Z,50.908218
2022-09-03T06:51:37.220Z,50.908146
2022-09-03T06:52:37.213Z,50.908054
2022-09-03T06:53:37.231Z,50.908112
2022-09-03T06:54:37.204Z,50.908138
2022-09-03T06:55:37.193Z,50.908131
2022-09-03T06:56:40.226Z,50.908134
2022-09-03T06:57:38.192Z,50.908134
2022-09-03T06:58:37.201Z,50.908150
2022-09-03T06:59:37.165Z,50.908169
2022-09-03T07:00:37.216Z,50.908192
2022-09-03T07:01:37.290Z,50.908142
2022-09-03T07:02:39.691Z,50.908119
2022-09-03T07:03:37.170Z,50.908112
2022-09-03T07:04:37.132Z,50.908146
2022-09-03T07:05:37.129Z,50.908115
2022-09-03T07:06:37.127Z,50.908134
2022-09-03T07:07:37.118Z,50.908138
2022-09-03T07:08:37.132Z,50.908176
2022-09-03T07:09:37.097Z,50.908154
2022-09-03T07:10:37.097Z,50.908192
2022-09-03T07:11:37.086Z,50.908165
2022-09-03T07:12:37.093Z,50.908138
2022-09-03T07:13:37.103Z,50.908138
2022-09-03T07:14:37.073Z,50.908165
2022-09-03T07:15:37.064Z,50.908192
2022-09-03T07:16:37.191Z,50.908184
2022-09-03T07:17:37.056Z,50.908157
2022-09-03T07:18:37.043Z,50.908157
2022-09-03T07:19:37.057Z,50.908062
2022-09-03T07:20:37.026Z,50.908131
2022-09-03T07:21:37.079Z,50.908173
2022-09-03T07:22:37.016Z,50.908188
2022-09-03T07:23:37.005Z,50.908207
2022-09-03T07:24:37.030Z,50.908138
2022-09-03T07:25:36.993Z,50.908146
2022-09-03T07:26:36.982Z,50.908100
2022-09-03T07:27:36.989Z,50.908134
2022-09-03T07:28:36.978Z,50.908142
2022-09-03T07:29:37.001Z,50.908146
2022-09-03T07:30:36.961Z,50.908127
2022-09-03T07:31:36.979Z,50.908115
2022-09-03T07:32:36.952Z,50.908112
2022-09-03T07:33:36.938Z,50.908112
2022-09-03T07:34:36.977Z,50.908157
2022-09-03T07:35:36.926Z,50.908146
2022-09-03T07:36:36.949Z,50.908123
2022-09-03T07:37:36.921Z,50.908085
2022-09-03T07:38:36.916Z,50.908127
2022-09-03T07:39:36.972Z,50.908134
2022-09-03T07:40:36.907Z,50.908146
2022-09-03T07:41:36.886Z,50.908138
2022-09-03T07:42:36.888Z,50.908123
2022-09-03T07:43:36.879Z,50.908138
2022-09-03T07:44:36.891Z,50.908119
2022-09-03T07:45:36.866Z,50.908115
2022-09-03T07:46:36.890Z,50.908138
2022-09-03T07:47:36.853Z,50.908134
2022-09-03T07:48:37.664Z,50.908127
2022-09-03T07:49:37.834Z,50.908150
2022-09-03T07:50:36.827Z,50.908089
2022-09-03T07:51:36.847Z,50.908043
2022-09-03T07:52:36.813Z,50.908104
2022-09-03T07:53:36.812Z,50.908131
2022-09-03T07:54:36.793Z,50.908154
2022-09-03T07:55:36.781Z,50.908112
2022-09-03T07:56:36.808Z,50.908092
2022-09-03T07:57:36.767Z,50.908138
2022-09-03T07:58:36.767Z,50.908127
2022-09-03T07:59:36.761Z,50.908119
2022-09-03T08:00:36.799Z,50.908115
2022-09-03T08:01:36.774Z,50.908115
2022-09-03T08:02:36.743Z,50.908123
2022-09-03T08:03:36.776Z,50.908131
2022-09-03T08:04:36.726Z,50.908127
2022-09-03T08:05:36.714Z,50.908127
2022-09-03T08:06:36.743Z,50.908127
2022-09-03T08:07:36.702Z,50.908100
2022-09-03T08:08:36.698Z,50.908108
2022-09-03T08:09:36.688Z,50.908112
2022-09-03T08:10:36.683Z,50.908112
2022-09-03T08:11:36.707Z,50.908169
2022-09-03T08:12:36.666Z,50.908142
2022-09-03T08:13:36.658Z,50.908131
2022-09-03T08:14:36.654Z,50.908123
2022-09-03T08:15:36.654Z,50.908104
2022-09-03T08:16:36.738Z,50.908047
2022-09-03T08:17:36.662Z,50.908073
2022-09-03T08:18:36.626Z,50.908092
2022-09-03T08:19:36.616Z,50.908092
2022-09-03T08:20:36.615Z,50.908115
2022-09-03T08:21:36.634Z,50.908131
2022-09-03T08:22:36.598Z,50.908173
2022-09-03T08:23:36.592Z,50.908134
2022-09-03T08:24:36.587Z,50.908119
2022-09-03T08:25:36.577Z,50.908119
2022-09-03T08:26:36.595Z,50.908119
2022-09-03T08:27:36.562Z,50.908092
2022-09-03T08:28:36.554Z,50.908142
2022-09-03T08:29:36.547Z,50.908157
2022-09-03T08:30:36.555Z,50.908142
2022-09-03T08:31:36.690Z,50.908161
2022-09-03T08:32:36.519Z,50.908123
2022-09-03T08:33:36.514Z,50.908108
2022-09-03T08:34:36.504Z,50.908108
2022-09-03T08:35:36.501Z,50.908115
2022-09-03T08:36:36.519Z,50.908112
2022-09-03T08:37:36.483Z,50.908100
2022-09-03T08:38:36.471Z,50.908054
2022-09-03T08:39:36.502Z,50.908047
2022-09-03T08:40:36.457Z,50.908070
2022-09-03T08:41:36.478Z,50.908165
2022-09-03T08:42:36.442Z,50.908180
2022-09-03T08:43:36.434Z,50.908146
2022-09-03T08:44:36.428Z,50.908092
2022-09-03T08:45:36.420Z,50.908081
2022-09-03T08:46:36.512Z,50.908096
2022-09-03T08:47:36.403Z,50.908115
2022-09-03T08:48:36.397Z,50.908100
2022-09-03T08:49:36.391Z,50.908112
2022-09-03T08:50:36.378Z,50.908123
2022-09-03T08:51:36.401Z,50.908100
2022-09-03T08:52:36.365Z,50.908104
2022-09-03T08:53:36.364Z,50.908115
2022-09-03T08:54:36.355Z,50.908077
2022-09-03T08:55:36.345Z,50.908100
2022-09-03T08:56:36.351Z,50.908112
2022-09-03T08:57:36.326Z,50.908146
2022-09-03T08:58:36.328Z,50.908165
2022-09-03T08:59:36.315Z,50.908119
2022-09-03T09:00:36.309Z,50.908123
2022-09-03T09:01:36.392Z,50.908138
2022-09-03T09:02:36.396Z,50.908127
2022-09-03T09:03:36.284Z,50.908119
2022-09-03T09:04:36.278Z,50.908157
2022-09-03T09:05:36.272Z,50.908123
2022-09-03T09:06:36.282Z,50.908119
2022-09-03T09:07:36.261Z,50.908112
2022-09-03T09:08:36.245Z,50.908104
2022-09-03T09:09:36.236Z,50.908115
2022-09-03T09:10:36.236Z,50.908096
2022-09-03T09:11:36.247Z,50.908154
2022-09-03T09:12:44.063Z,50.908138
2022-09-03T09:13:38.207Z,50.908131
2022-09-03T09:14:36.200Z,50.908092
2022-09-03T09:15:36.295Z,50.908073
2022-09-03T09:16:36.211Z,50.908066
2022-09-03T09:17:36.184Z,50.908112
2022-09-03T09:18:36.169Z,50.908119
2022-09-03T09:19:36.160Z,50.908066
2022-09-03T09:20:37.149Z,50.908104
2022-09-03T09:21:36.169Z,50.908073
2022-09-03T09:22:36.137Z,50.908066
2022-09-03T09:23:36.135Z,50.908043
2022-09-03T09:24:36.129Z,50.908176
2022-09-03T09:25:36.125Z,50.908218
2022-09-03T09:26:36.142Z,50.908081
2022-09-03T09:27:36.104Z,50.907993
2022-09-03T09:28:36.094Z,50.908024
2022-09-03T09:29:36.087Z,50.908070
2022-09-03T09:30:36.078Z,50.908039
2022-09-03T09:31:36.138Z,50.908070
2022-09-03T09:32:36.060Z,50.907818
2022-09-03T09:33:36.056Z,50.907864
2022-09-03T09:34:36.049Z,50.908001
2022-09-03T09:35:36.064Z,50.907997
2022-09-03T09:36:36.035Z,50.907921
2022-09-03T09:37:36.019Z,50.907856
2022-09-03T09:38:37.016Z,50.907810
2022-09-03T09:39:36.060Z,50.907913
2022-09-03T09:40:36.023Z,50.908012
2022-09-03T09:41:35.995Z,50.908184
2022-09-03T09:42:35.984Z,50.908287
2022-09-03T09:43:35.986Z,50.908199
2022-09-03T09:44:35.973Z,50.908237
2022-09-03T09:45:35.993Z,50.908379
2022-09-03T09:46:35.986Z,50.908199
2022-09-03T09:47:35.947Z,50.907990
2022-09-03T09:48:35.938Z,50.908104
2022-09-03T09:49:35.936Z,50.908096
2022-09-03T09:50:35.950Z,50.908138
2022-09-03T09:51:35.914Z,50.908127
2022-09-03T09:52:35.914Z,50.908081
2022-09-03T09:53:35.903Z,50.908089
2022-09-03T09:54:35.892Z,50.908028
2022-09-03T09:55:35.917Z,50.908096
2022-09-03T09:56:35.880Z,50.908009
2022-09-03T09:57:35.875Z,50.908073
2022-09-03T09:58:35.866Z,50.907986
2022-09-03T09:59:35.857Z,50.908028
2022-09-03T10:00:35.850Z,50.908054
2022-09-03T10:01:35.924Z,50.907993
2022-09-03T10:02:35.870Z,50.908051
2022-09-03T10:03:35.833Z,50.908054
2022-09-03T10:04:35.822Z,50.908031
2022-09-03T10:05:35.813Z,50.907967
2022-09-03T10:06:35.830Z,50.907959
2022-09-03T10:07:35.799Z,50.908112
2022-09-03T10:08:35.790Z,50.908115
2022-09-03T10:09:35.785Z,50.908047
2022-09-03T10:10:35.774Z,50.908138
2022-09-03T10:11:35.800Z,50.908131
2022-09-03T10:12:35.761Z,50.908138
2022-09-03T10:13:35.754Z,50.908104
2022-09-03T10:14:35.750Z,50.908035
2022-09-03T10:15:35.800Z,50.908043
2022-09-03T10:16:35.774Z,50.908077
2022-09-03T10:17:37.092Z,50.908047
2022-09-03T10:18:35.721Z,50.908104
2022-09-03T10:19:35.711Z,50.908073
2022-09-03T10:20:35.707Z,50.908119
2022-09-03T10:21:35.726Z,50.908157
2022-09-03T10:22:35.696Z,50.908108
2022-09-03T10:23:35.879Z,50.908085
2022-09-03T10:24:35.672Z,50.908001
2022-09-03T10:25:35.667Z,50.907974
2022-09-03T10:26:35.688Z,50.908108
2022-09-03T10:27:35.652Z,50.908115
2022-09-03T10:28:35.641Z,50.908142
2022-09-03T10:29:35.637Z,50.908054
2022-09-03T10:30:35.626Z,50.908035
2022-09-03T10:31:35.701Z,50.908131
2022-09-03T10:32:37.927Z,50.908123
2022-09-03T10:33:35.598Z,50.908180
2022-09-03T10:34:35.592Z,50.908146
2022-09-03T10:35:35.588Z,50.908150
2022-09-03T10:36:35.603Z,50.908154
2022-09-03T10:37:35.570Z,50.908112
2022-09-03T10:38:35.566Z,50.908119
2022-09-03T10:39:38.809Z,50.908108
2022-09-03T10:40:36.544Z,50.908104
2022-09-03T10:41:35.572Z,50.908100
2022-09-03T10:42:35.531Z,50.908115
2022-09-03T10:43:35.525Z,50.908112
2022-09-03T10:44:35.540Z,50.908115
2022-09-03T10:45:37.751Z,50.908112
2022-09-03T10:46:35.622Z,50.908100
2022-09-03T10:47:35.491Z,50.908100
2022-09-03T10:48:35.488Z,50.908131
2022-09-03T10:49:35.480Z,50.908157
2022-09-03T10:50:35.496Z,50.908169
2022-09-03T10:51:35.463Z,50.908173
2022-09-03T10:52:35.455Z,50.908115
2022-09-03T10:53:35.454Z,50.908119
2022-09-03T10:54:35.447Z,50.908062
2022-09-03T10:55:35.435Z,50.908112
2022-09-03T10:56:35.455Z,50.908138
2022-09-03T10:57:35.421Z,50.908085
2022-09-03T10:58:35.414Z,50.908051
2022-09-03T10:59:35.402Z,50.908123
2022-09-03T11:00:35.392Z,50.908161
2022-09-03T11:01:35.511Z,50.908180
2022-09-03T11:02:35.418Z,50.908134
2022-09-03T11:03:35.374Z,50.908100
2022-09-03T11:04:37.667Z,50.908066
2022-09-03T11:05:35.350Z,50.907970
2022-09-03T11:06:35.375Z,50.908066
2022-09-03T11:07:35.338Z,50.908131
2022-09-03T11:08:35.328Z,50.908123
2022-09-03T11:09:35.323Z,50.908188
2022-09-03T11:10:35.314Z,50.908142
2022-09-03T11:11:35.328Z,50.908100
2022-09-03T11:12:35.318Z,50.908081
2022-09-03T11:13:35.293Z,50.908138
2022-09-03T11:14:35.285Z,50.908058
2022-09-03T11:15:35.329Z,50.908039
2022-09-03T11:16:35.317Z,50.908081
2022-09-03T11:17:35.260Z,50.908077
2022-09-03T11:18:35.268Z,50.908092
2022-09-03T11:19:35.243Z,50.908039
2022-09-03T11:20:35.236Z,50.908031
2022-09-03T11:21:35.309Z,50.908108
2022-09-03T11:22:35.218Z,50.908039
2022-09-03T11:23:35.199Z,50.908035
2022-09-03T11:24:36.207Z,50.908092